Time;durP1;ratioP1;P1;durP2;ratioP2;P2;SDS_P1;SDS_P2;PMS_P1;PMS_P2;Temp;Humidity;BMP_temperature;BMP_pressure;BME280_temperature;BME280_humidity;BME280_pressure;Samples;Min_cycle;Max_cycle;Signal;HPM_P1;HPM_P2
2021/12/11 00:01:56;;;;;;;16.10;6.77;;;2.40;99.90;;;;;;5078572;28;20451;-55
2021/12/11 00:04:32;;;;;;;13.07;6.90;;;2.40;99.90;;;;;;5076067;28;20424;-51
2021/12/11 00:07:02;;;;;;;17.60;8.20;;;2.40;99.90;;;;;;5075913;28;20498;-53
2021/12/11 00:09:34;;;;;;;25.90;10.93;;;2.40;99.90;;;;;;5075530;28;20452;-53
2021/12/11 00:12:05;;;;;;;39.07;11.83;;;2.40;99.90;;;;;;5075492;28;20475;-51
2021/12/11 00:14:36;;;;;;;23.33;7.20;;;2.40;99.90;;;;;;5075573;28;20517;-55
2021/12/11 00:17:04;;;;;;;27.97;7.57;;;2.40;99.90;;;;;;5075393;28;20427;-54
2021/12/11 00:19:34;;;;;;;26.63;8.33;;;2.40;99.90;;;;;;5075380;28;20423;-54
2021/12/11 00:22:06;;;;;;;18.90;9.77;;;2.40;99.90;;;;;;5075639;28;20490;-55
2021/12/11 00:24:35;;;;;;;33.57;7.40;;;2.40;99.90;;;;;;5075201;28;20826;-51
2021/12/11 00:27:05;;;;;;;18.60;6.83;;;2.40;99.90;;;;;;5075011;28;20451;-53
2021/12/11 00:29:34;;;;;;;22.20;11.43;;;2.40;99.90;;;;;;5074830;28;20472;-55
2021/12/11 00:32:04;;;;;;;25.23;10.60;;;2.40;99.90;;;;;;5074914;28;20482;-54
2021/12/11 00:34:32;;;;;;;20.97;9.80;;;2.40;99.90;;;;;;5075015;28;20467;-55
2021/12/11 00:37:01;;;;;;;24.53;8.60;;;2.30;99.90;;;;;;5073219;28;20420;-55
2021/12/11 00:39:28;;;;;;;19.97;9.00;;;2.30;99.90;;;;;;5074318;28;20435;-52
2021/12/11 00:42:00;;;;;;;30.33;12.60;;;2.30;99.90;;;;;;5074335;28;20428;-47
2021/12/11 00:44:38;;;;;;;15.70;7.60;;;2.40;99.90;;;;;;5075591;28;20518;-54
2021/12/11 00:47:11;;;;;;;15.27;7.87;;;2.40;99.90;;;;;;5075350;28;20467;-52
2021/12/11 00:49:49;;;;;;;14.60;7.17;;;2.40;99.90;;;;;;5078402;28;20458;-55
2021/12/11 00:52:17;;;;;;;18.90;7.50;;;2.40;99.90;;;;;;5078861;28;20446;-54
2021/12/11 00:54:45;;;;;;;17.50;8.37;;;2.40;99.90;;;;;;5078886;28;20434;-51
2021/12/11 00:57:23;;;;;;;15.50;9.50;;;2.40;99.90;;;;;;5078783;28;20470;-56
2021/12/11 01:00:05;;;;;;;12.83;7.87;;;2.40;99.90;;;;;;5078567;28;20462;-53
2021/12/11 01:02:32;;;;;;;15.43;8.10;;;2.40;99.90;;;;;;5078577;28;20473;-51
2021/12/11 01:04:59;;;;;;;14.33;7.60;;;2.30;99.90;;;;;;5078931;28;20459;-56
2021/12/11 01:07:31;;;;;;;20.77;11.17;;;2.30;99.90;;;;;;5078466;28;20517;-56
2021/12/11 01:10:03;;;;;;;13.53;8.93;;;2.30;99.90;;;;;;5078574;28;20455;-55
2021/12/11 01:12:41;;;;;;;18.00;7.73;;;2.20;99.90;;;;;;5078626;28;20496;-56
2021/12/11 01:15:15;;;;;;;16.60;9.40;;;2.20;99.90;;;;;;5078766;28;20439;-55
2021/12/11 01:18:00;;;;;;;23.10;9.30;;;2.20;99.90;;;;;;5077753;28;20482;-55
2021/12/11 01:20:35;;;;;;;16.73;8.00;;;2.10;99.90;;;;;;5077829;28;20408;-56
2021/12/11 01:23:04;;;;;;;19.20;6.77;;;2.10;99.90;;;;;;5078653;28;20506;-53
2021/12/11 01:25:32;;;;;;;15.20;5.53;;;2.10;99.90;;;;;;5078115;28;20443;-57
2021/12/11 01:28:03;;;;;;;19.10;7.80;;;2.10;99.90;;;;;;5078408;28;20444;-53
2021/12/11 01:30:38;;;;;;;15.50;7.00;;;2.10;99.90;;;;;;5078500;28;20459;-58
2021/12/11 01:33:07;;;;;;;16.33;7.87;;;2.00;99.90;;;;;;5077982;28;20496;-54
2021/12/11 01:35:34;;;;;;;18.30;7.47;;;1.90;99.90;;;;;;5078104;28;20560;-56
2021/12/11 01:38:06;;;;;;;12.63;6.93;;;1.90;99.90;;;;;;5078007;28;20444;-55
2021/12/11 01:40:33;;;;;;;23.53;9.60;;;1.80;99.90;;;;;;5077660;28;20438;-52
2021/12/11 01:43:03;;;;;;;11.93;5.47;;;1.80;99.90;;;;;;5077638;28;20440;-49
2021/12/11 01:45:31;;;;;;;18.20;8.77;;;1.80;99.90;;;;;;5077722;28;20438;-54
2021/12/11 01:47:58;;;;;;;18.23;7.30;;;1.80;99.90;;;;;;5077724;28;20463;-52
2021/12/11 01:50:29;;;;;;;19.30;8.23;;;1.80;99.90;;;;;;5077896;28;20482;-54
2021/12/11 01:53:00;;;;;;;19.43;8.10;;;1.80;99.90;;;;;;5077468;28;20503;-55
2021/12/11 01:55:31;;;;;;;18.53;6.70;;;1.80;99.90;;;;;;5077934;28;20440;-55
2021/12/11 01:57:58;;;;;;;21.90;11.20;;;1.90;99.90;;;;;;5077113;28;20489;-51
2021/12/11 02:00:32;;;;;;;12.97;5.23;;;1.90;99.90;;;;;;5077789;28;20465;-56
2021/12/11 02:03:01;;;;;;;15.20;6.90;;;1.80;99.90;;;;;;5078125;28;20418;-52
2021/12/11 02:05:31;;;;;;;16.97;6.77;;;1.80;99.90;;;;;;5077789;28;20479;-52
2021/12/11 02:08:01;;;;;;;20.00;8.40;;;1.80;99.90;;;;;;5077826;28;20461;-58
2021/12/11 02:10:33;;;;;;;26.60;7.97;;;1.80;99.90;;;;;;5078220;28;20470;-51
2021/12/11 02:13:02;;;;;;;20.37;8.60;;;1.80;99.90;;;;;;5078047;28;20431;-57
2021/12/11 02:15:35;;;;;;;19.27;9.30;;;1.80;99.90;;;;;;5078358;28;20427;-55
2021/12/11 02:18:09;;;;;;;15.40;8.83;;;1.80;99.90;;;;;;5077735;28;20487;-55
2021/12/11 02:20:52;;;;;;;16.17;7.83;;;1.80;99.90;;;;;;5078040;28;20436;-54
2021/12/11 02:23:21;;;;;;;16.83;6.60;;;1.80;99.90;;;;;;5077435;28;20491;-54
2021/12/11 02:25:50;;;;;;;22.90;6.90;;;1.80;99.90;;;;;;5077248;28;20430;-54
2021/12/11 02:28:23;;;;;;;25.03;11.27;;;1.80;99.90;;;;;;5076982;28;20463;-55
2021/12/11 02:31:00;;;;;;;18.30;7.33;;;1.80;99.90;;;;;;5077364;28;20505;-56
2021/12/11 02:33:32;;;;;;;23.83;8.70;;;1.80;99.90;;;;;;5076737;28;20440;-51
2021/12/11 02:36:09;;;;;;;24.30;8.80;;;1.80;99.90;;;;;;5076827;28;20522;-52
2021/12/11 02:38:43;;;;;;;18.10;8.93;;;1.80;99.90;;;;;;5076789;28;20427;-53
2021/12/11 02:41:15;;;;;;;28.67;10.53;;;1.70;99.90;;;;;;5076426;28;20424;-55
2021/12/11 02:43:45;;;;;;;21.33;9.13;;;1.70;99.90;;;;;;5076604;28;20487;-56
2021/12/11 02:46:15;;;;;;;15.43;8.90;;;1.70;99.90;;;;;;5076798;28;20431;-55
2021/12/11 02:48:45;;;;;;;27.60;9.23;;;1.70;99.90;;;;;;5076993;28;20448;-51
2021/12/11 02:51:17;;;;;;;26.73;11.90;;;1.80;99.90;;;;;;5076935;28;20857;-54
2021/12/11 02:53:47;;;;;;;25.80;8.73;;;1.80;99.90;;;;;;5076594;28;20928;-54
2021/12/11 02:56:17;;;;;;;20.23;8.10;;;1.80;99.90;;;;;;5076369;28;20579;-53
2021/12/11 02:58:51;;;;;;;26.07;8.23;;;1.80;99.90;;;;;;5076492;28;20424;-55
2021/12/11 03:01:24;;;;;;;44.90;9.57;;;1.80;99.90;;;;;;5076191;28;20444;-52
2021/12/11 03:03:57;;;;;;;15.17;8.90;;;1.70;99.90;;;;;;5076558;28;20448;-54
2021/12/11 03:06:27;;;;;;;20.80;9.10;;;1.70;99.90;;;;;;5076358;28;20520;-50
2021/12/11 03:08:59;;;;;;;21.67;9.63;;;1.70;99.90;;;;;;5076221;28;20448;-52
2021/12/11 03:11:31;;;;;;;17.43;6.63;;;1.70;99.90;;;;;;5075824;28;20464;-52
2021/12/11 03:13:59;;;;;;;23.20;9.27;;;1.70;99.90;;;;;;5076344;28;20438;-54
2021/12/11 03:16:28;;;;;;;16.10;8.40;;;1.80;99.90;;;;;;5076065;28;20435;-54
2021/12/11 03:18:57;;;;;;;21.70;9.03;;;1.70;99.90;;;;;;5075662;28;20467;-52
2021/12/11 03:21:24;;;;;;;23.87;9.33;;;1.70;99.90;;;;;;5075984;28;20436;-55
2021/12/11 03:23:52;;;;;;;23.00;9.10;;;1.70;99.90;;;;;;5076057;28;20443;-51
2021/12/11 03:26:22;;;;;;;18.83;8.30;;;1.70;99.90;;;;;;5076200;28;20465;-54
2021/12/11 03:28:49;;;;;;;15.60;7.20;;;1.70;99.90;;;;;;5076281;28;20442;-53
2021/12/11 03:31:18;;;;;;;17.87;7.30;;;1.60;99.90;;;;;;5075336;28;20502;-54
2021/12/11 03:33:52;;;;;;;21.93;9.57;;;1.60;99.90;;;;;;5075596;28;20456;-53
2021/12/11 03:36:22;;;;;;;17.73;8.03;;;1.60;99.90;;;;;;5075682;28;20459;-54
2021/12/11 03:38:52;;;;;;;26.60;8.13;;;1.60;99.90;;;;;;5075814;28;20440;-52
2021/12/11 03:41:22;;;;;;;15.47;7.53;;;1.60;99.90;;;;;;5075974;28;20482;-54
2021/12/11 03:43:48;;;;;;;20.80;10.57;;;1.60;99.90;;;;;;5075082;28;20471;-53
2021/12/11 03:46:16;;;;;;;21.90;10.47;;;1.60;99.90;;;;;;5075926;28;20444;-53
2021/12/11 03:48:46;;;;;;;15.67;9.27;;;1.70;99.90;;;;;;5075472;28;20462;-53
2021/12/11 03:51:17;;;;;;;28.57;8.13;;;1.70;99.90;;;;;;5075887;28;20502;-51
2021/12/11 03:53:43;;;;;;;19.67;9.50;;;1.80;99.90;;;;;;5075667;28;20502;-52
2021/12/11 03:56:13;;;;;;;20.10;9.83;;;1.80;99.90;;;;;;5075554;28;20542;-55
2021/12/11 03:58:48;;;;;;;23.10;8.57;;;1.80;99.90;;;;;;5075505;28;20439;-54
2021/12/11 04:01:21;;;;;;;16.60;7.97;;;1.80;99.90;;;;;;5075805;28;20419;-55
2021/12/11 04:03:51;;;;;;;19.33;8.60;;;1.80;99.90;;;;;;5075543;28;20431;-54
2021/12/11 04:06:18;;;;;;;29.07;10.70;;;1.90;99.90;;;;;;5075751;28;20472;-54
2021/12/11 04:08:47;;;;;;;17.80;6.13;;;1.90;99.90;;;;;;5075308;28;20455;-54
2021/12/11 04:11:16;;;;;;;26.10;10.03;;;2.00;99.90;;;;;;5075465;28;20494;-57
2021/12/11 04:13:46;;;;;;;49.40;11.27;;;2.00;99.90;;;;;;5075390;28;20447;-55
2021/12/11 04:16:15;;;;;;;21.23;9.67;;;2.00;99.90;;;;;;5075264;28;20448;-51
2021/12/11 04:18:43;;;;;;;28.80;8.60;;;2.00;99.90;;;;;;5075716;28;20436;-51
2021/12/11 04:21:10;;;;;;;23.27;9.70;;;2.00;99.90;;;;;;5075370;28;20470;-51
2021/12/11 04:23:37;;;;;;;31.43;8.10;;;2.00;99.90;;;;;;5078208;28;20471;-53
2021/12/11 04:26:05;;;;;;;18.37;8.93;;;2.00;99.90;;;;;;5079490;28;20474;-50
2021/12/11 04:28:36;;;;;;;30.63;13.90;;;2.10;99.90;;;;;;5079410;28;20431;-55
2021/12/11 04:31:09;;;;;;;34.83;9.67;;;2.00;99.90;;;;;;5079706;28;20462;-54
2021/12/11 04:33:45;;;;;;;16.63;8.90;;;2.00;99.90;;;;;;5079386;28;20485;-55
2021/12/11 04:36:18;;;;;;;17.23;8.47;;;2.10;99.90;;;;;;5079399;28;20439;-54
2021/12/11 04:38:48;;;;;;;23.20;6.80;;;2.10;99.90;;;;;;5079231;28;20500;-55
2021/12/11 04:41:21;;;;;;;19.77;7.73;;;2.10;99.90;;;;;;5079401;28;20470;-55
2021/12/11 04:43:51;;;;;;;17.43;8.00;;;2.10;99.90;;;;;;5079647;28;20456;-52
2021/12/11 04:46:19;;;;;;;20.40;8.77;;;2.20;99.90;;;;;;5079013;28;20454;-56
2021/12/11 04:48:57;;;;;;;23.40;11.00;;;2.20;99.90;;;;;;5078771;28;20788;-55
2021/12/11 04:51:29;;;;;;;22.13;9.87;;;2.20;99.90;;;;;;5078914;28;20464;-55
2021/12/11 04:54:06;;;;;;;22.60;7.97;;;2.30;99.90;;;;;;5078601;28;20944;-53
2021/12/11 04:57:02;;;;;;;33.43;10.00;;;2.30;99.90;;;;;;5078741;28;20415;-51
2021/12/11 04:59:44;;;;;;;15.93;9.97;;;2.30;99.90;;;;;;5079005;28;20544;-55
2021/12/11 05:02:45;;;;;;;26.80;10.80;;;2.20;99.90;;;;;;5078425;28;20468;-54
2021/12/11 05:05:18;;;;;;;27.60;12.33;;;2.30;99.90;;;;;;5078538;28;20453;-55
2021/12/11 05:07:59;;;;;;;24.23;11.50;;;2.20;99.90;;;;;;5078732;28;20443;-54
2021/12/11 05:10:37;;;;;;;22.77;8.63;;;2.20;99.90;;;;;;5078373;28;20495;-53
2021/12/11 05:13:04;;;;;;;27.03;9.67;;;2.30;99.90;;;;;;5078645;28;20447;-54
2021/12/11 05:15:35;;;;;;;31.53;10.10;;;2.30;99.90;;;;;;5078499;28;20443;-55
2021/12/11 05:18:05;;;;;;;24.30;8.53;;;2.30;99.90;;;;;;5078351;28;20501;-49
2021/12/11 05:20:34;;;;;;;27.77;11.43;;;2.30;99.90;;;;;;5078100;28;20450;-54
2021/12/11 05:23:04;;;;;;;32.77;10.90;;;2.30;99.90;;;;;;5078046;28;20556;-53
2021/12/11 05:25:33;;;;;;;22.33;9.23;;;2.30;99.90;;;;;;5078208;28;20430;-54
2021/12/11 05:27:59;;;;;;;18.20;7.80;;;2.30;99.90;;;;;;5079053;28;20455;-53
2021/12/11 05:30:29;;;;;;;18.93;9.93;;;2.30;99.90;;;;;;5078812;28;20447;-55
2021/12/11 05:32:58;;;;;;;23.00;10.00;;;2.30;99.90;;;;;;5078168;28;20481;-54
2021/12/11 05:35:27;;;;;;;25.37;10.47;;;2.30;99.90;;;;;;5078761;28;20420;-52
2021/12/11 05:37:55;;;;;;;14.33;7.00;;;2.30;99.90;;;;;;5078880;28;20427;-54
2021/12/11 05:40:23;;;;;;;17.10;8.00;;;2.30;99.90;;;;;;5078787;28;20451;-52
2021/12/11 05:42:51;;;;;;;16.30;8.80;;;2.30;99.90;;;;;;5078375;28;20455;-54
2021/12/11 05:45:18;;;;;;;28.30;10.67;;;2.30;99.90;;;;;;5078143;28;20467;-52
2021/12/11 05:47:45;;;;;;;19.27;8.30;;;2.30;99.90;;;;;;5078440;28;20483;-56
2021/12/11 05:50:15;;;;;;;21.20;9.33;;;2.40;99.90;;;;;;5077719;28;20459;-54
2021/12/11 05:52:47;;;;;;;25.70;9.97;;;2.40;99.90;;;;;;5077999;28;20443;-51
2021/12/11 05:55:18;;;;;;;18.77;6.60;;;2.40;99.90;;;;;;5077782;28;20439;-55
2021/12/11 05:57:52;;;;;;;23.47;9.80;;;2.30;99.90;;;;;;5077662;28;20455;-55
2021/12/11 06:00:22;;;;;;;23.00;9.47;;;2.40;99.90;;;;;;5077772;28;20408;-55
2021/12/11 06:02:49;;;;;;;31.13;11.13;;;2.40;99.90;;;;;;5077786;28;20475;-52
2021/12/11 06:05:15;;;;;;;39.40;10.10;;;2.40;99.90;;;;;;5077918;28;20513;-53
2021/12/11 06:07:46;;;;;;;27.50;10.17;;;2.40;99.90;;;;;;5077358;28;20470;-55
2021/12/11 06:10:17;;;;;;;23.90;10.17;;;2.30;99.90;;;;;;5077427;28;20431;-54
2021/12/11 06:12:44;;;;;;;26.53;10.23;;;2.30;99.90;;;;;;5077411;28;20468;-55
2021/12/11 06:15:12;;;;;;;26.13;10.47;;;2.30;99.90;;;;;;5077661;28;20481;-54
2021/12/11 06:17:41;;;;;;;23.50;9.23;;;2.30;99.90;;;;;;5077160;28;20478;-54
2021/12/11 06:20:11;;;;;;;22.77;8.00;;;2.30;99.90;;;;;;5077467;28;20488;-55
2021/12/11 06:22:40;;;;;;;34.83;10.10;;;2.30;99.90;;;;;;5077287;28;20444;-54
2021/12/11 06:25:14;;;;;;;22.30;8.00;;;2.30;99.90;;;;;;5077044;28;20478;-52
2021/12/11 06:27:41;;;;;;;17.20;7.50;;;2.30;99.90;;;;;;5077185;28;20428;-54
2021/12/11 06:30:10;;;;;;;19.07;7.10;;;2.30;99.90;;;;;;5076839;28;20491;-50
2021/12/11 06:32:37;;;;;;;27.87;8.03;;;2.20;99.90;;;;;;5077173;28;20440;-55
2021/12/11 06:35:09;;;;;;;24.27;10.00;;;2.30;99.90;;;;;;5076623;28;20799;-52
2021/12/11 06:37:35;;;;;;;36.23;11.90;;;2.30;99.90;;;;;;5076703;28;20431;-55
2021/12/11 06:40:04;;;;;;;29.93;11.67;;;2.20;99.90;;;;;;5077014;28;20474;-49
2021/12/11 06:42:33;;;;;;;27.60;11.47;;;2.20;99.90;;;;;;5076734;28;20408;-56
2021/12/11 06:45:02;;;;;;;26.40;8.80;;;2.20;99.90;;;;;;5075973;28;20454;-53
2021/12/11 06:47:28;;;;;;;22.00;9.10;;;2.20;99.90;;;;;;5076745;28;20443;-55
2021/12/11 06:49:58;;;;;;;22.57;9.30;;;2.20;99.90;;;;;;5076893;28;20459;-54
2021/12/11 06:52:28;;;;;;;15.70;8.87;;;2.20;99.90;;;;;;5076847;28;20489;-52
2021/12/11 06:54:57;;;;;;;21.67;7.77;;;2.20;99.90;;;;;;5076304;28;20497;-55
2021/12/11 06:57:24;;;;;;;14.03;6.37;;;2.20;99.90;;;;;;5077186;28;20543;-54
2021/12/11 06:59:55;;;;;;;26.40;8.50;;;2.20;99.90;;;;;;5076692;28;20802;-55
2021/12/11 07:02:22;;;;;;;28.50;9.23;;;2.20;99.90;;;;;;5076406;28;20472;-58
2021/12/11 07:04:54;;;;;;;18.77;8.70;;;2.20;99.90;;;;;;5076775;28;20430;-53
2021/12/11 07:07:24;;;;;;;23.93;9.23;;;2.10;99.90;;;;;;5076748;28;20455;-55
2021/12/11 07:09:51;;;;;;;29.70;10.50;;;2.20;99.90;;;;;;5076317;28;20427;-48
2021/12/11 07:12:19;;;;;;;21.37;6.83;;;2.20;99.90;;;;;;5076364;28;20510;-54
2021/12/11 07:14:46;;;;;;;35.80;12.33;;;2.20;99.90;;;;;;5076577;28;20474;-54
2021/12/11 07:17:17;;;;;;;31.77;8.57;;;2.20;99.90;;;;;;5076375;28;20474;-53
2021/12/11 07:19:47;;;;;;;23.17;8.10;;;2.20;99.90;;;;;;5076203;28;20455;-54
2021/12/11 07:22:14;;;;;;;21.93;9.37;;;2.20;99.90;;;;;;5076325;28;20444;-52
2021/12/11 07:24:45;;;;;;;15.83;8.20;;;2.20;99.90;;;;;;5075850;28;20472;-53
2021/12/11 07:27:12;;;;;;;14.70;7.80;;;2.20;99.90;;;;;;5075893;28;20431;-56
2021/12/11 07:29:41;;;;;;;35.83;11.20;;;2.10;99.90;;;;;;5075588;28;20467;-56
2021/12/11 07:32:11;;;;;;;20.63;7.30;;;2.10;99.90;;;;;;5076194;28;20464;-53
2021/12/11 07:34:40;;;;;;;21.03;8.23;;;2.10;99.90;;;;;;5075934;28;20458;-55
2021/12/11 07:37:08;;;;;;;18.23;8.00;;;2.20;99.90;;;;;;5075793;28;20432;-54
2021/12/11 07:39:35;;;;;;;22.67;9.70;;;2.20;99.90;;;;;;5076022;28;20462;-53
2021/12/11 07:42:02;;;;;;;25.47;8.23;;;2.20;99.90;;;;;;5073375;28;20467;-55
2021/12/11 07:44:31;;;;;;;17.03;7.67;;;2.30;99.90;;;;;;5074369;28;20478;-54
2021/12/11 07:47:00;;;;;;;27.97;7.10;;;2.20;99.90;;;;;;5076321;28;20463;-50
2021/12/11 07:49:27;;;;;;;33.97;7.20;;;2.30;99.90;;;;;;5076144;28;20436;-52
2021/12/11 07:51:55;;;;;;;31.67;9.90;;;2.30;99.90;;;;;;5076137;28;20471;-49
2021/12/11 07:54:23;;;;;;;26.27;11.83;;;2.30;99.90;;;;;;5076440;28;20454;-54
2021/12/11 07:56:54;;;;;;;24.20;9.80;;;2.30;99.90;;;;;;5075652;28;20473;-49
2021/12/11 07:59:22;;;;;;;26.57;8.77;;;2.30;99.90;;;;;;5075220;28;20431;-54
2021/12/11 08:01:52;;;;;;;24.20;9.13;;;2.30;99.90;;;;;;5075797;28;20427;-55
2021/12/11 08:04:21;;;;;;;14.10;6.57;;;2.30;99.90;;;;;;5076142;28;20489;-55
2021/12/11 08:06:48;;;;;;;22.43;8.67;;;2.30;99.90;;;;;;5076117;28;20474;-55
2021/12/11 08:09:20;;;;;;;33.37;10.77;;;2.30;99.90;;;;;;5075516;28;20506;-54
2021/12/11 08:11:51;;;;;;;25.43;9.40;;;2.30;99.90;;;;;;5075293;28;20460;-57
2021/12/11 08:14:19;;;;;;;24.87;8.17;;;2.30;99.90;;;;;;5075813;28;20463;-56
2021/12/11 08:16:47;;;;;;;28.53;6.47;;;2.30;99.90;;;;;;5075940;28;20428;-54
2021/12/11 08:19:19;;;;;;;25.50;8.70;;;2.40;99.90;;;;;;5075465;28;20436;-52
2021/12/11 08:21:49;;;;;;;21.10;9.03;;;2.40;99.90;;;;;;5079834;28;20435;-56
2021/12/11 08:24:18;;;;;;;37.07;11.10;;;2.40;99.90;;;;;;5096065;28;20447;-54
2021/12/11 08:26:45;;;;;;;25.23;9.37;;;2.40;99.90;;;;;;5090224;28;20444;-52
2021/12/11 08:29:16;;;;;;;22.20;8.87;;;2.40;99.90;;;;;;5075525;28;20443;-53
2021/12/11 08:31:45;;;;;;;26.60;7.33;;;2.50;99.90;;;;;;5076393;28;20518;-55
2021/12/11 08:34:12;;;;;;;20.93;9.63;;;2.50;99.90;;;;;;5076417;28;20462;-54
2021/12/11 08:36:41;;;;;;;26.27;8.10;;;2.50;99.90;;;;;;5075568;28;20478;-52
2021/12/11 08:39:11;;;;;;;20.47;8.90;;;2.50;99.90;;;;;;5070564;28;20916;-54
2021/12/11 08:41:42;;;;;;;19.17;8.50;;;2.40;99.90;;;;;;5070089;28;20464;-53
2021/12/11 08:44:13;;;;;;;20.93;7.83;;;2.50;99.90;;;;;;5069612;28;20460;-53
2021/12/11 08:46:43;;;;;;;16.90;7.73;;;2.50;99.90;;;;;;5069524;28;20801;-51
2021/12/11 08:49:15;;;;;;;24.97;7.60;;;2.50;99.90;;;;;;5069270;28;20448;-48
2021/12/11 08:51:48;;;;;;;13.30;8.10;;;2.50;99.90;;;;;;5069241;28;20491;-54
2021/12/11 08:54:17;;;;;;;14.30;6.03;;;2.40;99.90;;;;;;5069978;28;20441;-54
2021/12/11 08:56:45;;;;;;;18.47;7.80;;;2.40;99.90;;;;;;5070364;28;20506;-52
2021/12/11 08:59:16;;;;;;;13.77;7.60;;;2.40;99.90;;;;;;5071490;28;20451;-51
2021/12/11 09:01:50;;;;;;;33.07;9.40;;;2.40;99.90;;;;;;5072687;28;20444;-52
2021/12/11 09:04:20;;;;;;;14.63;5.97;;;2.40;99.90;;;;;;5076275;28;20415;-50
2021/12/11 09:06:54;;;;;;;19.67;10.03;;;2.40;99.90;;;;;;5076271;28;21128;-53
2021/12/11 09:09:26;;;;;;;14.97;6.80;;;2.40;99.90;;;;;;5083215;28;20443;-56
2021/12/11 09:11:59;;;;;;;11.50;6.10;;;2.40;99.90;;;;;;5100229;28;20478;-53
2021/12/11 09:14:31;;;;;;;10.93;6.50;;;2.50;99.90;;;;;;5099430;28;20451;-53
2021/12/11 09:17:01;;;;;;;13.80;7.37;;;2.50;99.90;;;;;;5099575;28;20454;-53
2021/12/11 09:19:35;;;;;;;25.60;10.17;;;2.50;99.90;;;;;;5099940;28;20419;-60
2021/12/11 09:22:07;;;;;;;17.83;7.37;;;2.50;99.90;;;;;;5099362;28;20445;-55
2021/12/11 09:24:42;;;;;;;17.80;7.50;;;2.50;99.90;;;;;;5099576;28;20446;-54
2021/12/11 09:27:18;;;;;;;15.20;8.43;;;2.40;99.90;;;;;;5097909;28;20440;-54
2021/12/11 09:29:51;;;;;;;19.57;7.73;;;2.40;99.90;;;;;;5099185;28;20411;-61
2021/12/11 09:32:22;;;;;;;15.73;5.47;;;2.30;99.90;;;;;;5098874;28;20454;-52
2021/12/11 09:34:51;;;;;;;14.93;7.00;;;2.30;99.90;;;;;;5099171;28;20516;-52
2021/12/11 09:37:20;;;;;;;18.57;9.80;;;2.30;99.90;;;;;;5099304;28;20471;-56
2021/12/11 09:39:50;;;;;;;20.97;8.87;;;2.30;99.90;;;;;;5099563;28;20522;-55
2021/12/11 09:42:16;;;;;;;16.67;7.47;;;2.30;99.90;;;;;;5098884;28;20451;-57
2021/12/11 09:44:48;;;;;;;21.50;7.40;;;2.40;99.90;;;;;;5094946;28;20469;-53
2021/12/11 09:47:21;;;;;;;14.97;6.73;;;2.40;99.90;;;;;;5094056;28;20423;-49
2021/12/11 09:49:56;;;;;;;10.73;4.90;;;2.60;99.90;;;;;;5094505;28;20419;-55
2021/12/11 09:52:26;;;;;;;14.17;6.07;;;2.60;99.90;;;;;;5095676;28;20473;-57
2021/12/11 09:54:57;;;;;;;11.53;5.70;;;2.40;99.90;;;;;;5095667;28;20800;-52
2021/12/11 09:57:28;;;;;;;16.47;6.50;;;2.30;99.90;;;;;;5094939;28;20465;-51
2021/12/11 09:59:59;;;;;;;15.30;6.87;;;2.30;99.90;;;;;;5097779;28;20445;-54
2021/12/11 10:02:28;;;;;;;14.43;8.00;;;3.60;99.90;;;;;;5077389;28;20463;-54
2021/12/11 10:05:00;;;;;;;15.73;6.20;;;4.20;99.90;;;;;;5078490;28;20412;-54
2021/12/11 10:07:33;;;;;;;10.33;6.00;;;4.90;99.90;;;;;;5078034;28;20478;-55
2021/12/11 10:10:11;;;;;;;12.23;5.83;;;5.00;99.90;;;;;;5077295;28;20428;-54
2021/12/11 10:12:43;;;;;;;14.10;6.63;;;4.90;99.90;;;;;;5077510;28;20510;-55
2021/12/11 10:15:16;;;;;;;16.70;5.77;;;5.00;99.90;;;;;;5077275;28;20440;-54
2021/12/11 10:17:46;;;;;;;15.57;5.53;;;5.00;99.90;;;;;;5076950;28;20496;-52
2021/12/11 10:20:19;;;;;;;9.27;5.63;;;4.80;99.90;;;;;;5077536;28;20416;-55
2021/12/11 10:22:48;;;;;;;10.70;5.83;;;4.30;99.90;;;;;;5077006;28;20471;-54
2021/12/11 10:25:19;;;;;;;9.80;5.90;;;3.90;99.90;;;;;;5077475;28;20427;-53
2021/12/11 10:27:49;;;;;;;13.53;6.47;;;3.50;99.90;;;;;;5075861;28;20469;-57
2021/12/11 10:30:25;;;;;;;19.43;7.60;;;3.30;99.90;;;;;;5076976;28;20427;-54
2021/12/11 10:32:52;;;;;;;17.10;6.77;;;3.00;99.90;;;;;;5076966;28;20518;-57
2021/12/11 10:35:27;;;;;;;13.20;6.13;;;3.00;99.90;;;;;;5077414;28;20450;-55
2021/12/11 10:37:54;;;;;;;11.87;7.33;;;2.90;99.90;;;;;;5077324;28;20497;-54
2021/12/11 10:40:26;;;;;;;10.50;6.17;;;2.90;99.90;;;;;;5077041;28;20465;-56
2021/12/11 10:43:06;;;;;;;18.57;7.70;;;2.90;99.90;;;;;;5075891;28;20467;-54
2021/12/11 10:45:36;;;;;;;15.80;6.30;;;2.80;99.90;;;;;;5076823;28;20423;-53
2021/12/11 10:48:08;;;;;;;17.70;7.33;;;2.80;99.90;;;;;;5076884;28;20452;-55
2021/12/11 10:50:39;;;;;;;23.70;7.10;;;2.80;99.90;;;;;;5076672;28;20443;-52
2021/12/11 10:53:12;;;;;;;9.23;5.60;;;2.70;99.90;;;;;;5076356;28;20490;-51
2021/12/11 10:55:40;;;;;;;15.90;6.00;;;2.50;99.90;;;;;;5077438;28;20475;-53
2021/12/11 10:58:17;;;;;;;15.30;5.60;;;2.40;99.90;;;;;;5091240;28;20473;-49
2021/12/11 11:00:48;;;;;;;18.27;6.63;;;2.40;99.90;;;;;;5096760;28;20426;-51
2021/12/11 11:03:16;;;;;;;10.60;5.53;;;2.40;99.90;;;;;;5095911;28;20488;-55
2021/12/11 11:05:44;;;;;;;14.30;6.20;;;2.40;99.90;;;;;;5095476;28;20445;-53
2021/12/11 11:08:12;;;;;;;17.80;6.50;;;2.40;99.90;;;;;;5095455;28;20505;-54
2021/12/11 11:10:42;;;;;;;8.47;5.93;;;2.50;99.90;;;;;;5095485;28;20441;-50
2021/12/11 11:13:12;;;;;;;9.90;6.47;;;2.50;99.90;;;;;;5095485;28;20451;-56
2021/12/11 11:15:41;;;;;;;11.90;7.30;;;2.40;99.90;;;;;;5092020;28;20482;-50
2021/12/11 11:18:13;;;;;;;11.33;4.93;;;2.20;99.90;;;;;;5076636;28;20499;-57
2021/12/11 11:20:48;;;;;;;7.70;4.10;;;2.10;99.90;;;;;;5075725;28;20468;-54
2021/12/11 11:23:15;;;;;;;9.30;5.30;;;2.00;99.90;;;;;;5075265;28;20457;-54
2021/12/11 11:25:46;;;;;;;13.30;5.67;;;1.80;99.90;;;;;;5075808;28;20478;-55
2021/12/11 11:28:16;;;;;;;10.77;5.93;;;1.80;99.90;;;;;;5075713;28;20434;-53
2021/12/11 11:30:50;;;;;;;20.10;6.27;;;1.80;99.90;;;;;;5075388;28;20470;-57
2021/12/11 11:33:21;;;;;;;12.57;5.93;;;1.90;99.90;;;;;;5075461;28;20467;-54
2021/12/11 11:35:49;;;;;;;13.40;5.87;;;1.80;99.90;;;;;;5075682;28;20497;-52
2021/12/11 11:38:24;;;;;;;9.03;5.00;;;1.80;99.90;;;;;;5091821;28;20517;-53
2021/12/11 11:40:55;;;;;;;11.83;5.93;;;1.70;99.90;;;;;;5095625;28;20422;-53
2021/12/11 11:43:26;;;;;;;9.73;6.10;;;1.70;99.90;;;;;;5095410;28;20450;-49
2021/12/11 11:45:53;;;;;;;12.37;5.73;;;1.70;99.90;;;;;;5095049;28;20450;-55
2021/12/11 11:48:25;;;;;;;11.67;6.77;;;1.80;99.90;;;;;;5095348;28;20481;-54
2021/12/11 11:50:54;;;;;;;13.73;6.47;;;1.90;99.90;;;;;;5094905;28;20476;-54
2021/12/11 11:53:24;;;;;;;11.23;6.87;;;1.90;99.90;;;;;;5095498;28;20485;-53
2021/12/11 11:55:56;;;;;;;10.93;5.20;;;2.00;99.90;;;;;;5095221;28;20469;-53
2021/12/11 11:58:23;;;;;;;17.80;7.70;;;2.00;99.90;;;;;;5095311;28;20430;-55
2021/12/11 12:00:53;;;;;;;18.40;6.50;;;2.10;99.90;;;;;;5094832;28;20450;-52
2021/12/11 12:03:25;;;;;;;15.37;6.30;;;2.20;99.90;;;;;;5095197;28;20426;-52
2021/12/11 12:05:55;;;;;;;13.27;6.17;;;2.30;99.90;;;;;;5095158;28;20443;-53
2021/12/11 12:08:22;;;;;;;14.77;7.70;;;2.30;99.90;;;;;;5094936;28;20457;-56
2021/12/11 12:10:50;;;;;;;22.37;9.47;;;2.40;99.90;;;;;;5094935;28;20446;-54
2021/12/11 12:13:19;;;;;;;18.33;7.47;;;2.40;99.90;;;;;;5095315;28;20616;-55
2021/12/11 12:15:49;;;;;;;15.33;7.90;;;2.40;99.90;;;;;;5094832;28;20442;-52
2021/12/11 12:18:18;;;;;;;11.70;6.47;;;2.40;99.90;;;;;;5095084;28;20434;-55
2021/12/11 12:20:49;;;;;;;27.80;8.03;;;2.40;99.90;;;;;;5094829;28;20438;-56
2021/12/11 12:23:19;;;;;;;17.27;5.67;;;2.50;99.90;;;;;;5094824;28;20427;-54
2021/12/11 12:25:49;;;;;;;17.67;7.90;;;2.60;99.90;;;;;;5094857;28;20466;-52
2021/12/11 12:28:16;;;;;;;20.17;8.50;;;2.60;99.90;;;;;;5094955;28;20472;-55
2021/12/11 12:30:49;;;;;;;13.57;5.60;;;2.60;99.90;;;;;;5094623;28;20454;-49
2021/12/11 12:33:16;;;;;;;14.90;7.07;;;2.60;99.90;;;;;;5095176;28;20535;-51
2021/12/11 12:35:46;;;;;;;19.53;7.33;;;2.70;99.90;;;;;;5094620;28;20446;-55
2021/12/11 12:38:16;;;;;;;24.60;8.63;;;2.60;99.90;;;;;;5094854;28;20876;-58
2021/12/11 12:40:49;;;;;;;18.57;7.40;;;2.60;99.90;;;;;;5081092;22;20492;-52
2021/12/11 12:43:42;;;;;;;16.03;7.63;;;2.60;99.90;;;;;;5055542;28;20503;-53
2021/12/11 12:46:10;;;;;;;23.00;7.50;;;2.60;99.90;;;;;;5058307;28;20428;-55
2021/12/11 12:48:37;;;;;;;20.23;6.83;;;2.60;99.90;;;;;;5058488;28;20433;-53
2021/12/11 12:51:10;;;;;;;20.33;8.27;;;2.60;99.90;;;;;;5058068;28;20454;-48
2021/12/11 12:53:44;;;;;;;18.30;7.00;;;2.60;99.90;;;;;;5057875;28;20474;-49
2021/12/11 12:56:19;;;;;;;13.73;7.07;;;2.60;99.90;;;;;;5058476;28;20509;-49
2021/12/11 12:58:49;;;;;;;12.90;6.77;;;2.60;99.90;;;;;;5058468;28;20424;-49
2021/12/11 13:01:21;;;;;;;15.80;7.87;;;2.60;99.90;;;;;;5058989;28;20452;-54
2021/12/11 13:03:51;;;;;;;11.13;5.87;;;2.60;99.90;;;;;;5058412;28;20460;-50